Skip Navigation LinksHome page > Weather > Current weather Skip Navigation Links

Current Weather

Central Park, New York

For information only: do not use for flight planning or navigation.
Latest weather
Observation time Tuesday, January 27, 2015 2:51 PM EST
Local time Tuesday, January 27, 2015 3:54 PM EST
Flight conditions Visual Meteorological Conditions
Winds
Wind direction North-Northwest (340°)
Winds variable from 280° to 30°
Wind speed 8 mph
Wind gusting to 20 mph
Visibility 10 mi.
Sky condition
Ceiling unlimited
Cloud layer few clouds 3,100 ft.
Temperature 29°F
Dewpoint 16°F
Altimeter 29.67 in.Hg
Derived measurements
Relative humidity 58%
Wind chill 21°F
Density altitude -1547 ft.
Sea-level pressure 29.65 in.Hg
Remarks
Fully automated report.
System requires maintenance.
Automated weather observing station with precipitation discriminator.
METAR KNYC 271951Z AUTO 34007G17KT 280V030 10SM FEW031 M02/M09 A2967 RMK AO2 SLP040 T10171089 $

Settings

Location code

InnerDrive.Weather 4.0.5505.0 Release CLR 4.0.30319.34014
Copyright ©2015 Inner Drive Technology. All rights reserved. Portions Copyright ©1986-2015 David Braverman.

Find weather

Site navigation


Skip Navigation Links

Place info

Page info

PayPal - The safer, easier way to pay online!

Return home.

Copyright ©2015 Inner Drive Technology. Purveyors of fine, hand-crafted computer software. Page printed 2015-01-27T20:54:57 UTC.